Aplington, Iowa
Current Conditions -  °F | °C
As of 3:35 AM on Saturday 29 Nov 2014 (Local Time) from KIFA Reporting Station
Haze Haze  
Wind Chill: 17°   Ceiling: Unl
Heat Index: 25°   Visibility: 4mi
Dew Point: 23°   Wind: 7mph
Humidity: 94%   Direction: 140°SE
Pressure: 29.58"   Gusts: NA
Location:  42.58°N, 92.88°W
Report Text: KIFA 290935Z AUTO 14006KT 4SM BR CLR M04/M05 A2958 RMK AO2 T10411049
Loading
Personal Weather Stations






























Interactive Weather Map New forecast layout! Learn more

10-Day Weather Forecast

Advertisements
Track Severe Weather on mobile